sensor_id;sensor_type;location;lat;lon;timestamp;P1;durP1;ratioP1;P2;durP2;ratioP2
20970;SDS011;10644;48.834;10.088;2022-08-03T00:01:41;15.80;;;5.43;;
20970;SDS011;10644;48.834;10.088;2022-08-03T00:04:08;7.70;;;4.10;;
20970;SDS011;10644;48.834;10.088;2022-08-03T00:06:34;13.40;;;4.63;;
20970;SDS011;10644;48.834;10.088;2022-08-03T00:09:00;12.93;;;5.17;;
20970;SDS011;10644;48.834;10.088;2022-08-03T00:11:26;10.67;;;4.77;;
20970;SDS011;10644;48.834;10.088;2022-08-03T00:13:53;9.30;;;4.33;;
20970;SDS011;10644;48.834;10.088;2022-08-03T00:16:18;9.23;;;4.50;;
20970;SDS011;10644;48.834;10.088;2022-08-03T00:18:45;17.07;;;5.43;;
20970;SDS011;10644;48.834;10.088;2022-08-03T00:21:12;7.20;;;4.10;;
20970;SDS011;10644;48.834;10.088;2022-08-03T00:23:38;13.53;;;5.53;;
20970;SDS011;10644;48.834;10.088;2022-08-03T00:26:04;11.43;;;4.87;;
20970;SDS011;10644;48.834;10.088;2022-08-03T00:28:29;7.67;;;4.33;;
20970;SDS011;10644;48.834;10.088;2022-08-03T00:30:56;7.07;;;4.30;;
20970;SDS011;10644;48.834;10.088;2022-08-03T00:33:23;7.30;;;3.70;;
20970;SDS011;10644;48.834;10.088;2022-08-03T00:35:50;12.30;;;4.47;;
20970;SDS011;10644;48.834;10.088;2022-08-03T00:38:21;7.70;;;3.93;;
20970;SDS011;10644;48.834;10.088;2022-08-03T00:40:47;13.00;;;4.63;;
20970;SDS011;10644;48.834;10.088;2022-08-03T00:43:13;7.87;;;4.00;;
20970;SDS011;10644;48.834;10.088;2022-08-03T00:45:39;7.93;;;4.17;;
20970;SDS011;10644;48.834;10.088;2022-08-03T00:48:08;5.80;;;4.13;;
20970;SDS011;10644;48.834;10.088;2022-08-03T00:50:39;23.73;;;5.37;;
20970;SDS011;10644;48.834;10.088;2022-08-03T00:53:08;7.03;;;4.33;;
20970;SDS011;10644;48.834;10.088;2022-08-03T00:55:36;10.37;;;5.10;;
20970;SDS011;10644;48.834;10.088;2022-08-03T00:58:10;8.93;;;4.57;;
20970;SDS011;10644;48.834;10.088;2022-08-03T01:00:41;10.43;;;4.93;;
20970;SDS011;10644;48.834;10.088;2022-08-03T01:05:52;8.43;;;4.77;;
20970;SDS011;10644;48.834;10.088;2022-08-03T01:11:29;8.50;;;4.50;;
20970;SDS011;10644;48.834;10.088;2022-08-03T01:14:20;7.83;;;5.13;;
20970;SDS011;10644;48.834;10.088;2022-08-03T01:31:07;17.63;;;6.47;;
20970;SDS011;10644;48.834;10.088;2022-08-03T01:33:36;10.00;;;4.40;;
20970;SDS011;10644;48.834;10.088;2022-08-03T01:39:03;13.90;;;3.80;;
20970;SDS011;10644;48.834;10.088;2022-08-03T01:44:36;10.73;;;4.73;;
20970;SDS011;10644;48.834;10.088;2022-08-03T01:47:05;11.53;;;4.50;;
20970;SDS011;10644;48.834;10.088;2022-08-03T01:49:32;8.43;;;4.73;;
20970;SDS011;10644;48.834;10.088;2022-08-03T01:52:02;10.93;;;5.83;;
20970;SDS011;10644;48.834;10.088;2022-08-03T01:54:29;6.43;;;4.60;;
20970;SDS011;10644;48.834;10.088;2022-08-03T01:56:56;7.37;;;4.33;;
20970;SDS011;10644;48.834;10.088;2022-08-03T01:59:23;9.23;;;4.73;;
20970;SDS011;10644;48.834;10.088;2022-08-03T02:04:25;9.70;;;5.17;;
20970;SDS011;10644;48.834;10.088;2022-08-03T02:06:52;7.53;;;4.70;;
20970;SDS011;10644;48.834;10.088;2022-08-03T02:09:19;7.27;;;4.60;;
20970;SDS011;10644;48.834;10.088;2022-08-03T02:11:48;13.03;;;5.40;;
20970;SDS011;10644;48.834;10.088;2022-08-03T02:14:16;8.97;;;5.10;;
20970;SDS011;10644;48.834;10.088;2022-08-03T02:16:43;9.77;;;5.00;;
20970;SDS011;10644;48.834;10.088;2022-08-03T02:19:12;6.20;;;4.90;;
20970;SDS011;10644;48.834;10.088;2022-08-03T02:21:39;7.80;;;5.17;;
20970;SDS011;10644;48.834;10.088;2022-08-03T02:24:07;8.60;;;4.73;;
20970;SDS011;10644;48.834;10.088;2022-08-03T02:26:41;12.53;;;4.90;;
20970;SDS011;10644;48.834;10.088;2022-08-03T02:29:20;6.23;;;5.10;;
20970;SDS011;10644;48.834;10.088;2022-08-03T02:31:50;7.67;;;5.30;;
20970;SDS011;10644;48.834;10.088;2022-08-03T02:34:16;9.90;;;5.10;;
20970;SDS011;10644;48.834;10.088;2022-08-03T02:36:47;9.70;;;5.13;;
20970;SDS011;10644;48.834;10.088;2022-08-03T02:41:51;7.30;;;4.77;;
20970;SDS011;10644;48.834;10.088;2022-08-03T02:44:34;14.63;;;5.47;;
20970;SDS011;10644;48.834;10.088;2022-08-03T02:47:04;18.70;;;6.27;;
20970;SDS011;10644;48.834;10.088;2022-08-03T02:49:34;8.43;;;4.50;;
20970;SDS011;10644;48.834;10.088;2022-08-03T02:52:02;14.97;;;5.80;;
20970;SDS011;10644;48.834;10.088;2022-08-03T02:54:33;9.80;;;5.30;;
20970;SDS011;10644;48.834;10.088;2022-08-03T02:57:00;20.60;;;6.53;;
20970;SDS011;10644;48.834;10.088;2022-08-03T02:59:32;8.83;;;4.97;;
20970;SDS011;10644;48.834;10.088;2022-08-03T03:01:59;9.80;;;5.03;;
20970;SDS011;10644;48.834;10.088;2022-08-03T03:04:27;6.77;;;5.20;;
20970;SDS011;10644;48.834;10.088;2022-08-03T03:07:01;12.47;;;5.50;;
20970;SDS011;10644;48.834;10.088;2022-08-03T03:09:26;4.83;;;4.40;;
20970;SDS011;10644;48.834;10.088;2022-08-03T03:11:52;8.43;;;5.10;;
20970;SDS011;10644;48.834;10.088;2022-08-03T03:14:20;7.57;;;4.80;;
20970;SDS011;10644;48.834;10.088;2022-08-03T03:16:45;12.70;;;4.27;;
20970;SDS011;10644;48.834;10.088;2022-08-03T03:19:20;12.23;;;5.07;;
20970;SDS011;10644;48.834;10.088;2022-08-03T03:21:48;7.20;;;4.77;;
20970;SDS011;10644;48.834;10.088;2022-08-03T03:24:15;12.93;;;4.90;;
20970;SDS011;10644;48.834;10.088;2022-08-03T03:26:42;17.33;;;6.40;;
20970;SDS011;10644;48.834;10.088;2022-08-03T03:29:08;8.00;;;5.70;;
20970;SDS011;10644;48.834;10.088;2022-08-03T03:31:34;6.80;;;5.03;;
20970;SDS011;10644;48.834;10.088;2022-08-03T03:33:59;7.07;;;5.03;;
20970;SDS011;10644;48.834;10.088;2022-08-03T03:38:53;5.20;;;4.70;;
20970;SDS011;10644;48.834;10.088;2022-08-03T03:41:18;13.67;;;4.77;;
20970;SDS011;10644;48.834;10.088;2022-08-03T03:43:45;8.63;;;5.60;;
20970;SDS011;10644;48.834;10.088;2022-08-03T03:46:11;8.73;;;5.63;;
20970;SDS011;10644;48.834;10.088;2022-08-03T03:48:40;8.80;;;5.43;;
20970;SDS011;10644;48.834;10.088;2022-08-03T03:51:07;8.27;;;5.70;;
20970;SDS011;10644;48.834;10.088;2022-08-03T03:53:35;11.37;;;5.13;;
20970;SDS011;10644;48.834;10.088;2022-08-03T03:56:00;6.67;;;4.70;;
20970;SDS011;10644;48.834;10.088;2022-08-03T03:58:28;14.83;;;6.50;;
20970;SDS011;10644;48.834;10.088;2022-08-03T04:00:54;10.33;;;5.47;;
20970;SDS011;10644;48.834;10.088;2022-08-03T04:03:21;11.03;;;5.50;;
20970;SDS011;10644;48.834;10.088;2022-08-03T04:05:46;11.27;;;5.93;;
20970;SDS011;10644;48.834;10.088;2022-08-03T04:08:30;9.87;;;5.90;;
20970;SDS011;10644;48.834;10.088;2022-08-03T04:14:07;7.40;;;5.40;;
20970;SDS011;10644;48.834;10.088;2022-08-03T04:16:40;11.73;;;6.40;;
20970;SDS011;10644;48.834;10.088;2022-08-03T04:19:16;8.03;;;5.93;;
20970;SDS011;10644;48.834;10.088;2022-08-03T04:21:46;8.90;;;6.47;;
20970;SDS011;10644;48.834;10.088;2022-08-03T04:24:16;9.13;;;5.53;;
20970;SDS011;10644;48.834;10.088;2022-08-03T04:26:58;8.13;;;5.67;;
20970;SDS011;10644;48.834;10.088;2022-08-03T04:29:26;16.73;;;6.30;;
20970;SDS011;10644;48.834;10.088;2022-08-03T04:31:59;7.80;;;5.50;;
20970;SDS011;10644;48.834;10.088;2022-08-03T04:34:26;8.83;;;5.70;;
20970;SDS011;10644;48.834;10.088;2022-08-03T04:41:57;11.47;;;6.00;;
20970;SDS011;10644;48.834;10.088;2022-08-03T04:44:35;13.23;;;6.20;;
20970;SDS011;10644;48.834;10.088;2022-08-03T04:47:02;14.43;;;6.73;;
20970;SDS011;10644;48.834;10.088;2022-08-03T04:49:29;12.43;;;6.30;;
20970;SDS011;10644;48.834;10.088;2022-08-03T04:52:00;8.17;;;5.43;;
20970;SDS011;10644;48.834;10.088;2022-08-03T04:54:28;10.83;;;6.17;;
20970;SDS011;10644;48.834;10.088;2022-08-03T04:56:55;9.03;;;5.63;;
20970;SDS011;10644;48.834;10.088;2022-08-03T05:02:15;12.70;;;7.10;;
20970;SDS011;10644;48.834;10.088;2022-08-03T05:07:17;10.77;;;6.97;;
20970;SDS011;10644;48.834;10.088;2022-08-03T05:09:42;10.60;;;6.60;;
20970;SDS011;10644;48.834;10.088;2022-08-03T05:12:08;11.40;;;6.97;;
20970;SDS011;10644;48.834;10.088;2022-08-03T05:17:08;14.23;;;6.83;;
20970;SDS011;10644;48.834;10.088;2022-08-03T05:19:40;7.13;;;5.53;;
20970;SDS011;10644;48.834;10.088;2022-08-03T05:22:05;16.80;;;5.80;;
20970;SDS011;10644;48.834;10.088;2022-08-03T05:24:31;9.70;;;5.60;;
20970;SDS011;10644;48.834;10.088;2022-08-03T05:26:56;9.63;;;5.77;;
20970;SDS011;10644;48.834;10.088;2022-08-03T05:29:22;14.63;;;7.07;;
20970;SDS011;10644;48.834;10.088;2022-08-03T05:31:47;9.23;;;6.20;;
20970;SDS011;10644;48.834;10.088;2022-08-03T05:37:07;15.93;;;6.23;;
20970;SDS011;10644;48.834;10.088;2022-08-03T05:39:33;9.63;;;5.90;;
20970;SDS011;10644;48.834;10.088;2022-08-03T05:42:08;14.93;;;6.30;;
20970;SDS011;10644;48.834;10.088;2022-08-03T05:44:36;6.77;;;5.30;;
20970;SDS011;10644;48.834;10.088;2022-08-03T05:47:04;14.63;;;6.27;;
20970;SDS011;10644;48.834;10.088;2022-08-03T05:49:29;10.33;;;6.97;;
20970;SDS011;10644;48.834;10.088;2022-08-03T05:51:56;9.70;;;5.97;;
20970;SDS011;10644;48.834;10.088;2022-08-03T05:54:22;15.20;;;5.97;;
20970;SDS011;10644;48.834;10.088;2022-08-03T05:56:56;10.40;;;6.10;;
20970;SDS011;10644;48.834;10.088;2022-08-03T05:59:21;8.63;;;5.80;;
20970;SDS011;10644;48.834;10.088;2022-08-03T06:01:47;12.47;;;6.47;;
20970;SDS011;10644;48.834;10.088;2022-08-03T06:04:12;22.53;;;8.47;;
20970;SDS011;10644;48.834;10.088;2022-08-03T06:06:39;18.77;;;8.43;;
20970;SDS011;10644;48.834;10.088;2022-08-03T06:09:05;17.07;;;9.23;;
20970;SDS011;10644;48.834;10.088;2022-08-03T06:11:30;24.70;;;10.30;;
20970;SDS011;10644;48.834;10.088;2022-08-03T06:13:56;16.90;;;8.03;;
20970;SDS011;10644;48.834;10.088;2022-08-03T06:16:21;19.00;;;8.77;;
20970;SDS011;10644;48.834;10.088;2022-08-03T06:18:47;19.77;;;8.90;;
20970;SDS011;10644;48.834;10.088;2022-08-03T06:21:17;19.83;;;7.90;;
20970;SDS011;10644;48.834;10.088;2022-08-03T06:23:44;21.03;;;9.10;;
20970;SDS011;10644;48.834;10.088;2022-08-03T06:26:10;18.63;;;8.90;;
20970;SDS011;10644;48.834;10.088;2022-08-03T06:28:44;25.33;;;10.23;;
20970;SDS011;10644;48.834;10.088;2022-08-03T06:31:10;20.30;;;8.70;;
20970;SDS011;10644;48.834;10.088;2022-08-03T06:33:42;17.10;;;9.10;;
20970;SDS011;10644;48.834;10.088;2022-08-03T06:36:07;18.77;;;8.90;;
20970;SDS011;10644;48.834;10.088;2022-08-03T06:38:33;19.50;;;8.90;;
20970;SDS011;10644;48.834;10.088;2022-08-03T06:41:01;30.83;;;10.50;;
20970;SDS011;10644;48.834;10.088;2022-08-03T06:43:27;21.17;;;9.23;;
20970;SDS011;10644;48.834;10.088;2022-08-03T06:48:47;23.37;;;9.23;;
20970;SDS011;10644;48.834;10.088;2022-08-03T06:51:27;22.83;;;11.50;;
20970;SDS011;10644;48.834;10.088;2022-08-03T06:53:54;31.70;;;13.47;;
20970;SDS011;10644;48.834;10.088;2022-08-03T06:56:25;41.90;;;16.27;;
20970;SDS011;10644;48.834;10.088;2022-08-03T06:58:59;31.27;;;15.47;;
20970;SDS011;10644;48.834;10.088;2022-08-03T07:01:40;25.13;;;13.60;;
20970;SDS011;10644;48.834;10.088;2022-08-03T07:04:08;33.53;;;16.10;;
20970;SDS011;10644;48.834;10.088;2022-08-03T07:06:33;49.57;;;17.70;;
20970;SDS011;10644;48.834;10.088;2022-08-03T07:08:59;48.83;;;18.00;;
20970;SDS011;10644;48.834;10.088;2022-08-03T07:11:25;37.10;;;15.53;;
20970;SDS011;10644;48.834;10.088;2022-08-03T07:13:52;34.30;;;14.80;;
20970;SDS011;10644;48.834;10.088;2022-08-03T07:16:26;32.27;;;13.10;;
20970;SDS011;10644;48.834;10.088;2022-08-03T07:18:51;25.30;;;10.50;;
20970;SDS011;10644;48.834;10.088;2022-08-03T07:21:16;15.90;;;7.97;;
20970;SDS011;10644;48.834;10.088;2022-08-03T07:23:44;28.27;;;9.53;;
20970;SDS011;10644;48.834;10.088;2022-08-03T07:26:09;19.17;;;9.20;;
20970;SDS011;10644;48.834;10.088;2022-08-03T07:28:37;14.40;;;7.60;;
20970;SDS011;10644;48.834;10.088;2022-08-03T07:31:08;18.87;;;9.00;;
20970;SDS011;10644;48.834;10.088;2022-08-03T07:33:37;21.80;;;7.83;;
20970;SDS011;10644;48.834;10.088;2022-08-03T07:36:02;11.50;;;6.67;;
20970;SDS011;10644;48.834;10.088;2022-08-03T07:38:31;16.03;;;7.00;;
20970;SDS011;10644;48.834;10.088;2022-08-03T07:40:59;10.83;;;3.80;;
20970;SDS011;10644;48.834;10.088;2022-08-03T07:43:25;7.27;;;2.77;;
20970;SDS011;10644;48.834;10.088;2022-08-03T07:45:55;8.40;;;3.43;;
20970;SDS011;10644;48.834;10.088;2022-08-03T07:48:20;3.20;;;2.30;;
20970;SDS011;10644;48.834;10.088;2022-08-03T07:50:49;8.73;;;2.80;;
20970;SDS011;10644;48.834;10.088;2022-08-03T07:53:14;11.77;;;3.60;;
20970;SDS011;10644;48.834;10.088;2022-08-03T07:55:40;5.03;;;2.27;;
20970;SDS011;10644;48.834;10.088;2022-08-03T07:58:07;5.63;;;2.57;;
20970;SDS011;10644;48.834;10.088;2022-08-03T08:00:36;5.73;;;2.63;;
20970;SDS011;10644;48.834;10.088;2022-08-03T08:03:02;6.40;;;2.60;;
20970;SDS011;10644;48.834;10.088;2022-08-03T08:05:30;4.67;;;2.60;;
20970;SDS011;10644;48.834;10.088;2022-08-03T08:07:56;15.20;;;3.90;;
20970;SDS011;10644;48.834;10.088;2022-08-03T08:10:21;8.07;;;2.73;;
20970;SDS011;10644;48.834;10.088;2022-08-03T08:12:47;12.90;;;3.27;;
20970;SDS011;10644;48.834;10.088;2022-08-03T08:15:13;8.60;;;2.53;;
20970;SDS011;10644;48.834;10.088;2022-08-03T08:17:43;11.53;;;3.30;;
20970;SDS011;10644;48.834;10.088;2022-08-03T08:20:19;7.23;;;3.00;;
20970;SDS011;10644;48.834;10.088;2022-08-03T08:22:47;2.10;;;1.93;;
20970;SDS011;10644;48.834;10.088;2022-08-03T08:25:13;11.20;;;3.27;;
20970;SDS011;10644;48.834;10.088;2022-08-03T08:27:53;3.60;;;2.77;;
20970;SDS011;10644;48.834;10.088;2022-08-03T08:30:23;13.50;;;3.80;;
20970;SDS011;10644;48.834;10.088;2022-08-03T08:32:49;11.10;;;2.60;;
20970;SDS011;10644;48.834;10.088;2022-08-03T08:35:16;9.80;;;2.60;;
20970;SDS011;10644;48.834;10.088;2022-08-03T08:37:43;8.73;;;3.10;;
20970;SDS011;10644;48.834;10.088;2022-08-03T08:40:09;16.47;;;3.73;;
20970;SDS011;10644;48.834;10.088;2022-08-03T08:42:38;13.73;;;3.70;;
20970;SDS011;10644;48.834;10.088;2022-08-03T08:45:05;19.90;;;4.23;;
20970;SDS011;10644;48.834;10.088;2022-08-03T08:47:33;15.20;;;3.10;;
20970;SDS011;10644;48.834;10.088;2022-08-03T08:50:02;7.33;;;2.17;;
20970;SDS011;10644;48.834;10.088;2022-08-03T08:52:28;12.10;;;2.97;;
20970;SDS011;10644;48.834;10.088;2022-08-03T08:54:56;8.47;;;2.60;;
20970;SDS011;10644;48.834;10.088;2022-08-03T08:57:25;13.43;;;3.03;;
20970;SDS011;10644;48.834;10.088;2022-08-03T08:59:54;3.60;;;2.07;;
20970;SDS011;10644;48.834;10.088;2022-08-03T09:02:21;6.33;;;2.27;;
20970;SDS011;10644;48.834;10.088;2022-08-03T09:04:56;4.77;;;2.43;;
20970;SDS011;10644;48.834;10.088;2022-08-03T09:07:29;30.90;;;4.13;;
20970;SDS011;10644;48.834;10.088;2022-08-03T09:09:54;4.40;;;2.27;;
20970;SDS011;10644;48.834;10.088;2022-08-03T09:12:20;13.30;;;2.70;;
20970;SDS011;10644;48.834;10.088;2022-08-03T09:14:46;5.10;;;2.17;;
20970;SDS011;10644;48.834;10.088;2022-08-03T09:17:17;15.53;;;3.63;;
20970;SDS011;10644;48.834;10.088;2022-08-03T09:19:43;5.57;;;2.33;;
20970;SDS011;10644;48.834;10.088;2022-08-03T09:25:17;5.90;;;2.10;;
20970;SDS011;10644;48.834;10.088;2022-08-03T09:27:43;7.30;;;2.17;;
20970;SDS011;10644;48.834;10.088;2022-08-03T09:30:14;5.83;;;2.00;;
20970;SDS011;10644;48.834;10.088;2022-08-03T09:32:44;14.77;;;3.33;;
20970;SDS011;10644;48.834;10.088;2022-08-03T09:35:11;7.23;;;2.33;;
20970;SDS011;10644;48.834;10.088;2022-08-03T09:37:38;6.70;;;2.37;;
20970;SDS011;10644;48.834;10.088;2022-08-03T09:40:28;4.30;;;1.97;;
20970;SDS011;10644;48.834;10.088;2022-08-03T09:42:59;19.03;;;3.50;;
20970;SDS011;10644;48.834;10.088;2022-08-03T09:45:41;12.53;;;2.70;;
20970;SDS011;10644;48.834;10.088;2022-08-03T09:48:27;6.43;;;1.83;;
20970;SDS011;10644;48.834;10.088;2022-08-03T09:50:59;5.10;;;1.93;;
20970;SDS011;10644;48.834;10.088;2022-08-03T09:53:27;4.80;;;1.93;;
20970;SDS011;10644;48.834;10.088;2022-08-03T09:55:59;14.93;;;2.40;;
20970;SDS011;10644;48.834;10.088;2022-08-03T09:58:29;17.53;;;3.40;;
20970;SDS011;10644;48.834;10.088;2022-08-03T10:03:26;6.00;;;2.50;;
20970;SDS011;10644;48.834;10.088;2022-08-03T10:05:53;12.43;;;2.90;;
20970;SDS011;10644;48.834;10.088;2022-08-03T10:08:19;8.73;;;2.03;;
20970;SDS011;10644;48.834;10.088;2022-08-03T10:10:53;12.13;;;2.30;;
20970;SDS011;10644;48.834;10.088;2022-08-03T10:13:21;13.20;;;2.70;;
20970;SDS011;10644;48.834;10.088;2022-08-03T10:15:49;10.03;;;2.17;;
20970;SDS011;10644;48.834;10.088;2022-08-03T10:18:20;3.07;;;1.80;;
20970;SDS011;10644;48.834;10.088;2022-08-03T10:20:54;8.40;;;3.37;;
20970;SDS011;10644;48.834;10.088;2022-08-03T10:23:40;12.80;;;3.20;;
20970;SDS011;10644;48.834;10.088;2022-08-03T10:26:07;15.30;;;2.87;;
20970;SDS011;10644;48.834;10.088;2022-08-03T10:28:39;9.07;;;1.97;;
20970;SDS011;10644;48.834;10.088;2022-08-03T10:33:41;6.50;;;2.10;;
20970;SDS011;10644;48.834;10.088;2022-08-03T10:36:08;3.90;;;1.30;;
20970;SDS011;10644;48.834;10.088;2022-08-03T10:38:41;6.60;;;1.73;;
20970;SDS011;10644;48.834;10.088;2022-08-03T10:41:12;9.00;;;1.90;;
20970;SDS011;10644;48.834;10.088;2022-08-03T10:43:57;3.80;;;1.67;;
20970;SDS011;10644;48.834;10.088;2022-08-03T10:46:28;6.50;;;1.57;;
20970;SDS011;10644;48.834;10.088;2022-08-03T10:48:53;4.40;;;1.63;;
20970;SDS011;10644;48.834;10.088;2022-08-03T10:51:22;2.47;;;1.43;;
20970;SDS011;10644;48.834;10.088;2022-08-03T10:53:48;9.83;;;2.33;;
20970;SDS011;10644;48.834;10.088;2022-08-03T11:02:15;13.63;;;3.50;;
20970;SDS011;10644;48.834;10.088;2022-08-03T11:04:46;4.73;;;2.00;;
20970;SDS011;10644;48.834;10.088;2022-08-03T11:08:16;13.80;;;2.17;;
20970;SDS011;10644;48.834;10.088;2022-08-03T11:10:46;11.20;;;3.20;;
20970;SDS011;10644;48.834;10.088;2022-08-03T11:13:16;3.97;;;2.10;;
20970;SDS011;10644;48.834;10.088;2022-08-03T11:15:52;7.03;;;2.10;;
20970;SDS011;10644;48.834;10.088;2022-08-03T11:18:18;8.20;;;1.73;;
20970;SDS011;10644;48.834;10.088;2022-08-03T11:20:46;4.50;;;1.83;;
20970;SDS011;10644;48.834;10.088;2022-08-03T11:26:13;10.93;;;2.60;;
20970;SDS011;10644;48.834;10.088;2022-08-03T11:28:39;8.67;;;1.90;;
20970;SDS011;10644;48.834;10.088;2022-08-03T11:34:02;10.53;;;2.63;;
20970;SDS011;10644;48.834;10.088;2022-08-03T11:39:42;6.20;;;2.17;;
20970;SDS011;10644;48.834;10.088;2022-08-03T11:44:48;6.40;;;1.90;;
20970;SDS011;10644;48.834;10.088;2022-08-03T11:47:14;7.47;;;1.90;;
20970;SDS011;10644;48.834;10.088;2022-08-03T11:49:48;13.43;;;2.30;;
20970;SDS011;10644;48.834;10.088;2022-08-03T11:52:17;3.13;;;1.60;;
20970;SDS011;10644;48.834;10.088;2022-08-03T11:54:43;15.27;;;2.60;;
20970;SDS011;10644;48.834;10.088;2022-08-03T11:57:08;13.33;;;2.30;;
20970;SDS011;10644;48.834;10.088;2022-08-03T11:59:38;6.23;;;1.80;;
20970;SDS011;10644;48.834;10.088;2022-08-03T12:02:09;9.10;;;1.97;;
20970;SDS011;10644;48.834;10.088;2022-08-03T12:04:54;3.70;;;1.30;;
20970;SDS011;10644;48.834;10.088;2022-08-03T12:07:29;4.97;;;1.67;;
20970;SDS011;10644;48.834;10.088;2022-08-03T12:10:13;11.73;;;2.10;;
20970;SDS011;10644;48.834;10.088;2022-08-03T12:12:40;4.47;;;1.70;;
20970;SDS011;10644;48.834;10.088;2022-08-03T12:15:07;9.60;;;2.20;;
20970;SDS011;10644;48.834;10.088;2022-08-03T12:21:57;7.60;;;1.87;;
20970;SDS011;10644;48.834;10.088;2022-08-03T12:23:58;6.73;;;1.93;;
20970;SDS011;10644;48.834;10.088;2022-08-03T12:26:28;7.90;;;2.03;;
20970;SDS011;10644;48.834;10.088;2022-08-03T12:29:06;2.40;;;1.50;;
20970;SDS011;10644;48.834;10.088;2022-08-03T12:31:31;2.30;;;1.50;;
20970;SDS011;10644;48.834;10.088;2022-08-03T12:36:51;2.50;;;1.70;;
20970;SDS011;10644;48.834;10.088;2022-08-03T12:39:23;6.37;;;1.80;;
20970;SDS011;10644;48.834;10.088;2022-08-03T12:41:52;2.40;;;1.20;;
20970;SDS011;10644;48.834;10.088;2022-08-03T12:44:27;11.43;;;2.17;;
20970;SDS011;10644;48.834;10.088;2022-08-03T12:47:00;26.77;;;3.10;;
20970;SDS011;10644;48.834;10.088;2022-08-03T12:49:26;11.33;;;2.63;;
20970;SDS011;10644;48.834;10.088;2022-08-03T12:54:21;7.87;;;2.43;;
20970;SDS011;10644;48.834;10.088;2022-08-03T12:57:03;6.60;;;1.80;;
20970;SDS011;10644;48.834;10.088;2022-08-03T12:59:38;10.77;;;2.50;;
20970;SDS011;10644;48.834;10.088;2022-08-03T13:02:21;18.00;;;2.50;;
20970;SDS011;10644;48.834;10.088;2022-08-03T13:04:56;16.07;;;3.10;;
20970;SDS011;10644;48.834;10.088;2022-08-03T13:07:23;7.93;;;2.13;;
20970;SDS011;10644;48.834;10.088;2022-08-03T13:09:50;9.83;;;1.70;;
20970;SDS011;10644;48.834;10.088;2022-08-03T13:12:26;9.73;;;2.53;;
20970;SDS011;10644;48.834;10.088;2022-08-03T13:14:54;11.50;;;2.83;;
20970;SDS011;10644;48.834;10.088;2022-08-03T13:17:28;15.23;;;2.50;;
20970;SDS011;10644;48.834;10.088;2022-08-03T13:19:53;4.50;;;1.60;;
20970;SDS011;10644;48.834;10.088;2022-08-03T13:22:26;3.53;;;1.30;;
20970;SDS011;10644;48.834;10.088;2022-08-03T13:24:55;8.27;;;1.87;;
20970;SDS011;10644;48.834;10.088;2022-08-03T13:27:21;3.50;;;1.57;;
20970;SDS011;10644;48.834;10.088;2022-08-03T13:29:48;4.23;;;1.60;;
20970;SDS011;10644;48.834;10.088;2022-08-03T13:32:13;11.37;;;2.60;;
20970;SDS011;10644;48.834;10.088;2022-08-03T13:34:39;16.50;;;2.87;;
20970;SDS011;10644;48.834;10.088;2022-08-03T13:37:06;10.30;;;1.87;;
20970;SDS011;10644;48.834;10.088;2022-08-03T13:39:33;4.23;;;1.53;;
20970;SDS011;10644;48.834;10.088;2022-08-03T13:41:58;10.17;;;2.33;;
20970;SDS011;10644;48.834;10.088;2022-08-03T13:44:23;5.20;;;1.70;;
20970;SDS011;10644;48.834;10.088;2022-08-03T13:46:50;8.17;;;2.27;;
20970;SDS011;10644;48.834;10.088;2022-08-03T13:49:15;6.73;;;1.73;;
20970;SDS011;10644;48.834;10.088;2022-08-03T13:51:40;9.27;;;2.53;;
20970;SDS011;10644;48.834;10.088;2022-08-03T13:54:08;3.73;;;1.30;;
20970;SDS011;10644;48.834;10.088;2022-08-03T13:56:33;5.70;;;1.60;;
20970;SDS011;10644;48.834;10.088;2022-08-03T13:59:10;2.90;;;1.40;;
20970;SDS011;10644;48.834;10.088;2022-08-03T14:01:35;7.63;;;1.97;;
20970;SDS011;10644;48.834;10.088;2022-08-03T14:04:02;13.73;;;2.03;;
20970;SDS011;10644;48.834;10.088;2022-08-03T14:06:28;5.13;;;2.60;;
20970;SDS011;10644;48.834;10.088;2022-08-03T14:08:54;7.70;;;2.57;;
20970;SDS011;10644;48.834;10.088;2022-08-03T14:11:23;10.60;;;2.00;;
20970;SDS011;10644;48.834;10.088;2022-08-03T14:13:50;7.50;;;1.70;;
20970;SDS011;10644;48.834;10.088;2022-08-03T14:16:17;5.83;;;1.50;;
20970;SDS011;10644;48.834;10.088;2022-08-03T14:18:42;13.20;;;2.27;;
20970;SDS011;10644;48.834;10.088;2022-08-03T14:21:12;5.30;;;1.40;;
20970;SDS011;10644;48.834;10.088;2022-08-03T14:23:38;2.13;;;1.50;;
20970;SDS011;10644;48.834;10.088;2022-08-03T14:26:09;3.60;;;1.40;;
20970;SDS011;10644;48.834;10.088;2022-08-03T14:28:36;5.37;;;1.93;;
20970;SDS011;10644;48.834;10.088;2022-08-03T14:31:01;8.67;;;1.73;;
20970;SDS011;10644;48.834;10.088;2022-08-03T14:33:29;6.70;;;1.60;;
20970;SDS011;10644;48.834;10.088;2022-08-03T14:35:55;13.27;;;2.67;;
20970;SDS011;10644;48.834;10.088;2022-08-03T14:38:21;4.50;;;1.80;;
20970;SDS011;10644;48.834;10.088;2022-08-03T14:40:46;8.13;;;1.80;;
20970;SDS011;10644;48.834;10.088;2022-08-03T14:43:18;22.63;;;3.17;;
20970;SDS011;10644;48.834;10.088;2022-08-03T14:45:50;8.50;;;2.30;;
20970;SDS011;10644;48.834;10.088;2022-08-03T14:48:34;7.60;;;2.20;;
20970;SDS011;10644;48.834;10.088;2022-08-03T14:50:59;8.73;;;2.10;;
20970;SDS011;10644;48.834;10.088;2022-08-03T14:53:25;8.83;;;1.97;;
20970;SDS011;10644;48.834;10.088;2022-08-03T14:55:52;8.23;;;2.00;;
20970;SDS011;10644;48.834;10.088;2022-08-03T14:58:23;4.43;;;1.30;;
20970;SDS011;10644;48.834;10.088;2022-08-03T15:00:53;7.17;;;1.97;;
20970;SDS011;10644;48.834;10.088;2022-08-03T15:03:21;7.80;;;1.93;;
20970;SDS011;10644;48.834;10.088;2022-08-03T15:05:56;7.43;;;1.80;;
20970;SDS011;10644;48.834;10.088;2022-08-03T15:08:22;6.23;;;1.97;;
20970;SDS011;10644;48.834;10.088;2022-08-03T15:10:50;12.33;;;2.33;;
20970;SDS011;10644;48.834;10.088;2022-08-03T15:13:18;5.10;;;1.30;;
20970;SDS011;10644;48.834;10.088;2022-08-03T15:15:46;3.07;;;1.30;;
20970;SDS011;10644;48.834;10.088;2022-08-03T15:18:12;6.63;;;2.27;;
20970;SDS011;10644;48.834;10.088;2022-08-03T15:20:38;6.60;;;1.60;;
20970;SDS011;10644;48.834;10.088;2022-08-03T15:23:03;10.70;;;2.57;;
20970;SDS011;10644;48.834;10.088;2022-08-03T15:25:29;7.60;;;1.97;;
20970;SDS011;10644;48.834;10.088;2022-08-03T15:27:54;5.13;;;1.53;;
20970;SDS011;10644;48.834;10.088;2022-08-03T15:30:20;5.70;;;1.53;;
20970;SDS011;10644;48.834;10.088;2022-08-03T15:32:45;10.33;;;2.13;;
20970;SDS011;10644;48.834;10.088;2022-08-03T15:35:10;1.87;;;1.23;;
20970;SDS011;10644;48.834;10.088;2022-08-03T15:37:36;4.63;;;1.80;;
20970;SDS011;10644;48.834;10.088;2022-08-03T15:40:02;5.57;;;2.07;;
20970;SDS011;10644;48.834;10.088;2022-08-03T15:42:28;4.80;;;2.00;;
20970;SDS011;10644;48.834;10.088;2022-08-03T15:44:55;2.33;;;1.30;;
20970;SDS011;10644;48.834;10.088;2022-08-03T15:47:22;4.40;;;1.30;;
20970;SDS011;10644;48.834;10.088;2022-08-03T15:49:58;10.63;;;2.13;;
20970;SDS011;10644;48.834;10.088;2022-08-03T15:52:25;5.90;;;1.87;;
20970;SDS011;10644;48.834;10.088;2022-08-03T15:54:53;4.47;;;1.50;;
20970;SDS011;10644;48.834;10.088;2022-08-03T15:57:19;3.87;;;1.67;;
20970;SDS011;10644;48.834;10.088;2022-08-03T15:59:45;7.30;;;2.03;;
20970;SDS011;10644;48.834;10.088;2022-08-03T16:02:10;12.53;;;2.27;;
20970;SDS011;10644;48.834;10.088;2022-08-03T16:04:36;4.87;;;1.57;;
20970;SDS011;10644;48.834;10.088;2022-08-03T16:07:01;17.00;;;2.87;;
20970;SDS011;10644;48.834;10.088;2022-08-03T16:09:35;5.37;;;1.83;;